sensor_id;sensor_type;location;lat;lon;timestamp;P1;durP1;ratioP1;P2;durP2;ratioP2
74229;SDS011;62589;12.568;99.958;2022-08-21T00:00:55;4.93;;;1.08;;
74229;SDS011;62589;12.568;99.958;2022-08-21T00:03:22;1.42;;;0.70;;
74229;SDS011;62589;12.568;99.958;2022-08-21T00:05:49;6.68;;;1.40;;
74229;SDS011;62589;12.568;99.958;2022-08-21T00:08:17;4.57;;;1.50;;
74229;SDS011;62589;12.568;99.958;2022-08-21T00:10:46;2.72;;;1.13;;
74229;SDS011;62589;12.568;99.958;2022-08-21T00:13:13;3.80;;;1.08;;
74229;SDS011;62589;12.568;99.958;2022-08-21T00:15:40;3.67;;;1.52;;
74229;SDS011;62589;12.568;99.958;2022-08-21T00:18:08;3.35;;;1.30;;
74229;SDS011;62589;12.568;99.958;2022-08-21T00:20:36;4.45;;;1.10;;
74229;SDS011;62589;12.568;99.958;2022-08-21T00:23:03;4.88;;;1.90;;
74229;SDS011;62589;12.568;99.958;2022-08-21T00:25:30;6.00;;;3.17;;
74229;SDS011;62589;12.568;99.958;2022-08-21T00:27:57;18.25;;;9.02;;
74229;SDS011;62589;12.568;99.958;2022-08-21T00:30:24;25.52;;;15.15;;
74229;SDS011;62589;12.568;99.958;2022-08-21T00:32:52;32.33;;;20.30;;
74229;SDS011;62589;12.568;99.958;2022-08-21T00:35:21;26.30;;;15.63;;
74229;SDS011;62589;12.568;99.958;2022-08-21T00:37:51;21.23;;;11.90;;
74229;SDS011;62589;12.568;99.958;2022-08-21T00:40:19;15.05;;;9.20;;
74229;SDS011;62589;12.568;99.958;2022-08-21T00:42:48;11.88;;;6.80;;
74229;SDS011;62589;12.568;99.958;2022-08-21T00:45:15;8.38;;;4.93;;
74229;SDS011;62589;12.568;99.958;2022-08-21T00:47:42;7.93;;;4.93;;
74229;SDS011;62589;12.568;99.958;2022-08-21T00:50:09;8.07;;;3.83;;
74229;SDS011;62589;12.568;99.958;2022-08-21T00:52:37;6.35;;;3.20;;
74229;SDS011;62589;12.568;99.958;2022-08-21T00:55:05;6.10;;;3.30;;
74229;SDS011;62589;12.568;99.958;2022-08-21T00:57:40;5.95;;;3.53;;
74229;SDS011;62589;12.568;99.958;2022-08-21T01:00:12;7.55;;;3.47;;
74229;SDS011;62589;12.568;99.958;2022-08-21T01:02:42;6.47;;;3.17;;
74229;SDS011;62589;12.568;99.958;2022-08-21T01:05:09;5.15;;;2.60;;
74229;SDS011;62589;12.568;99.958;2022-08-21T01:07:36;4.15;;;2.40;;
74229;SDS011;62589;12.568;99.958;2022-08-21T01:10:05;2.85;;;1.67;;
74229;SDS011;62589;12.568;99.958;2022-08-21T01:12:33;4.40;;;1.90;;
74229;SDS011;62589;12.568;99.958;2022-08-21T01:15:02;3.92;;;1.92;;
74229;SDS011;62589;12.568;99.958;2022-08-21T01:17:30;2.97;;;1.50;;
74229;SDS011;62589;12.568;99.958;2022-08-21T01:19:58;3.58;;;1.70;;
74229;SDS011;62589;12.568;99.958;2022-08-21T01:22:25;3.92;;;2.00;;
74229;SDS011;62589;12.568;99.958;2022-08-21T01:24:52;4.63;;;1.75;;
74229;SDS011;62589;12.568;99.958;2022-08-21T01:27:18;5.43;;;1.70;;
74229;SDS011;62589;12.568;99.958;2022-08-21T01:29:56;5.53;;;1.95;;
74229;SDS011;62589;12.568;99.958;2022-08-21T01:32:26;5.05;;;1.63;;
74229;SDS011;62589;12.568;99.958;2022-08-21T01:34:53;6.45;;;1.80;;
74229;SDS011;62589;12.568;99.958;2022-08-21T01:37:20;3.97;;;1.75;;
74229;SDS011;62589;12.568;99.958;2022-08-21T01:39:47;5.35;;;2.17;;
74229;SDS011;62589;12.568;99.958;2022-08-21T01:42:13;4.80;;;1.60;;
74229;SDS011;62589;12.568;99.958;2022-08-21T01:44:40;6.05;;;1.50;;
74229;SDS011;62589;12.568;99.958;2022-08-21T01:47:08;10.27;;;2.67;;
74229;SDS011;62589;12.568;99.958;2022-08-21T01:49:37;5.13;;;1.70;;
74229;SDS011;62589;12.568;99.958;2022-08-21T01:52:05;4.63;;;1.60;;
74229;SDS011;62589;12.568;99.958;2022-08-21T01:54:32;3.85;;;1.80;;
74229;SDS011;62589;12.568;99.958;2022-08-21T01:56:58;2.92;;;1.30;;
74229;SDS011;62589;12.568;99.958;2022-08-21T01:59:27;3.03;;;1.83;;
74229;SDS011;62589;12.568;99.958;2022-08-21T02:01:53;6.22;;;1.80;;
74229;SDS011;62589;12.568;99.958;2022-08-21T02:04:20;6.55;;;2.13;;
74229;SDS011;62589;12.568;99.958;2022-08-21T02:06:47;4.15;;;1.90;;
74229;SDS011;62589;12.568;99.958;2022-08-21T02:09:14;6.13;;;2.28;;
74229;SDS011;62589;12.568;99.958;2022-08-21T02:11:41;7.35;;;2.90;;
74229;SDS011;62589;12.568;99.958;2022-08-21T02:14:10;7.55;;;2.63;;
74229;SDS011;62589;12.568;99.958;2022-08-21T02:16:39;8.40;;;2.67;;
74229;SDS011;62589;12.568;99.958;2022-08-21T02:19:07;4.63;;;2.38;;
74229;SDS011;62589;12.568;99.958;2022-08-21T02:21:34;7.32;;;3.25;;
74229;SDS011;62589;12.568;99.958;2022-08-21T02:24:00;9.70;;;2.75;;
74229;SDS011;62589;12.568;99.958;2022-08-21T02:26:27;8.55;;;2.53;;
74229;SDS011;62589;12.568;99.958;2022-08-21T02:28:53;6.55;;;2.80;;
74229;SDS011;62589;12.568;99.958;2022-08-21T02:31:20;4.63;;;2.58;;
74229;SDS011;62589;12.568;99.958;2022-08-21T02:33:46;5.72;;;2.80;;
74229;SDS011;62589;12.568;99.958;2022-08-21T02:36:13;7.22;;;3.05;;
74229;SDS011;62589;12.568;99.958;2022-08-21T02:38:40;8.75;;;2.75;;
74229;SDS011;62589;12.568;99.958;2022-08-21T02:41:11;6.47;;;3.08;;
74229;SDS011;62589;12.568;99.958;2022-08-21T02:43:40;4.22;;;2.25;;
74229;SDS011;62589;12.568;99.958;2022-08-21T02:46:08;4.75;;;2.63;;
74229;SDS011;62589;12.568;99.958;2022-08-21T02:48:37;7.13;;;2.70;;
74229;SDS011;62589;12.568;99.958;2022-08-21T02:51:05;7.40;;;3.05;;
74229;SDS011;62589;12.568;99.958;2022-08-21T02:53:40;7.18;;;2.60;;
74229;SDS011;62589;12.568;99.958;2022-08-21T02:56:08;9.45;;;3.30;;
74229;SDS011;62589;12.568;99.958;2022-08-21T02:58:37;6.53;;;2.90;;
74229;SDS011;62589;12.568;99.958;2022-08-21T03:01:07;7.70;;;3.17;;
74229;SDS011;62589;12.568;99.958;2022-08-21T03:03:35;6.03;;;2.78;;
74229;SDS011;62589;12.568;99.958;2022-08-21T03:06:04;12.40;;;4.70;;
74229;SDS011;62589;12.568;99.958;2022-08-21T03:08:33;10.25;;;4.40;;
74229;SDS011;62589;12.568;99.958;2022-08-21T03:11:00;8.90;;;3.67;;
74229;SDS011;62589;12.568;99.958;2022-08-21T03:13:27;12.23;;;3.33;;
74229;SDS011;62589;12.568;99.958;2022-08-21T03:15:54;10.25;;;3.55;;
74229;SDS011;62589;12.568;99.958;2022-08-21T03:18:21;6.00;;;3.10;;
74229;SDS011;62589;12.568;99.958;2022-08-21T03:20:47;9.73;;;3.35;;
74229;SDS011;62589;12.568;99.958;2022-08-21T03:23:15;4.90;;;2.42;;
74229;SDS011;62589;12.568;99.958;2022-08-21T03:25:43;6.20;;;3.40;;
74229;SDS011;62589;12.568;99.958;2022-08-21T03:28:12;10.05;;;3.33;;
74229;SDS011;62589;12.568;99.958;2022-08-21T03:30:43;8.77;;;3.92;;
74229;SDS011;62589;12.568;99.958;2022-08-21T03:33:11;8.73;;;3.22;;
74229;SDS011;62589;12.568;99.958;2022-08-21T03:35:38;10.05;;;3.72;;
74229;SDS011;62589;12.568;99.958;2022-08-21T03:38:05;6.43;;;3.50;;
74229;SDS011;62589;12.568;99.958;2022-08-21T03:40:32;7.72;;;2.92;;
74229;SDS011;62589;12.568;99.958;2022-08-21T03:42:58;7.60;;;3.25;;
74229;SDS011;62589;12.568;99.958;2022-08-21T03:45:25;10.80;;;3.85;;
74229;SDS011;62589;12.568;99.958;2022-08-21T03:47:56;9.23;;;3.67;;
74229;SDS011;62589;12.568;99.958;2022-08-21T03:50:25;5.28;;;2.70;;
74229;SDS011;62589;12.568;99.958;2022-08-21T03:52:54;7.72;;;3.70;;
74229;SDS011;62589;12.568;99.958;2022-08-21T03:55:21;10.02;;;3.42;;
74229;SDS011;62589;12.568;99.958;2022-08-21T03:57:49;7.88;;;3.35;;
74229;SDS011;62589;12.568;99.958;2022-08-21T04:00:15;12.15;;;3.35;;
74229;SDS011;62589;12.568;99.958;2022-08-21T04:02:44;8.18;;;3.47;;
74229;SDS011;62589;12.568;99.958;2022-08-21T04:05:13;6.55;;;3.50;;
74229;SDS011;62589;12.568;99.958;2022-08-21T04:07:53;7.22;;;2.72;;
74229;SDS011;62589;12.568;99.958;2022-08-21T04:10:24;8.63;;;3.53;;
74229;SDS011;62589;12.568;99.958;2022-08-21T04:12:52;8.05;;;3.17;;
74229;SDS011;62589;12.568;99.958;2022-08-21T04:15:19;10.18;;;3.47;;
74229;SDS011;62589;12.568;99.958;2022-08-21T04:17:46;9.23;;;3.67;;
74229;SDS011;62589;12.568;99.958;2022-08-21T04:20:14;10.57;;;3.28;;
74229;SDS011;62589;12.568;99.958;2022-08-21T04:22:41;7.30;;;3.60;;
74229;SDS011;62589;12.568;99.958;2022-08-21T04:25:07;4.63;;;2.80;;
74229;SDS011;62589;12.568;99.958;2022-08-21T04:27:34;6.00;;;2.70;;
74229;SDS011;62589;12.568;99.958;2022-08-21T04:30:00;4.55;;;3.00;;
74229;SDS011;62589;12.568;99.958;2022-08-21T04:32:27;10.30;;;3.33;;
74229;SDS011;62589;12.568;99.958;2022-08-21T04:35:00;5.55;;;2.70;;
74229;SDS011;62589;12.568;99.958;2022-08-21T04:37:29;5.40;;;2.50;;
74229;SDS011;62589;12.568;99.958;2022-08-21T04:39:56;7.18;;;2.67;;
74229;SDS011;62589;12.568;99.958;2022-08-21T04:42:27;4.90;;;2.53;;
74229;SDS011;62589;12.568;99.958;2022-08-21T04:44:54;8.43;;;3.17;;
74229;SDS011;62589;12.568;99.958;2022-08-21T04:47:22;6.88;;;3.13;;
74229;SDS011;62589;12.568;99.958;2022-08-21T04:49:48;5.10;;;2.42;;
74229;SDS011;62589;12.568;99.958;2022-08-21T04:52:17;6.15;;;2.95;;
74229;SDS011;62589;12.568;99.958;2022-08-21T04:54:47;7.97;;;3.10;;
74229;SDS011;62589;12.568;99.958;2022-08-21T04:57:17;6.10;;;3.00;;
74229;SDS011;62589;12.568;99.958;2022-08-21T04:59:45;5.65;;;3.05;;
74229;SDS011;62589;12.568;99.958;2022-08-21T05:02:16;6.07;;;3.30;;
74229;SDS011;62589;12.568;99.958;2022-08-21T05:04:49;7.38;;;3.10;;
74229;SDS011;62589;12.568;99.958;2022-08-21T05:07:19;6.47;;;3.05;;
74229;SDS011;62589;12.568;99.958;2022-08-21T05:09:50;7.47;;;2.95;;
74229;SDS011;62589;12.568;99.958;2022-08-21T05:12:16;6.57;;;3.08;;
74229;SDS011;62589;12.568;99.958;2022-08-21T05:14:44;5.78;;;3.05;;
74229;SDS011;62589;12.568;99.958;2022-08-21T05:17:10;12.88;;;2.72;;
74229;SDS011;62589;12.568;99.958;2022-08-21T05:19:37;4.75;;;2.45;;
74229;SDS011;62589;12.568;99.958;2022-08-21T05:22:03;3.75;;;2.08;;
74229;SDS011;62589;12.568;99.958;2022-08-21T05:24:30;7.07;;;2.65;;
74229;SDS011;62589;12.568;99.958;2022-08-21T05:26:57;2.45;;;1.92;;
74229;SDS011;62589;12.568;99.958;2022-08-21T05:29:24;6.50;;;2.42;;
74229;SDS011;62589;12.568;99.958;2022-08-21T05:31:50;2.80;;;1.70;;
74229;SDS011;62589;12.568;99.958;2022-08-21T05:34:19;5.15;;;2.17;;
74229;SDS011;62589;12.568;99.958;2022-08-21T05:36:48;4.10;;;2.53;;
74229;SDS011;62589;12.568;99.958;2022-08-21T05:39:15;5.57;;;2.20;;
74229;SDS011;62589;12.568;99.958;2022-08-21T05:41:41;6.30;;;2.83;;
74229;SDS011;62589;12.568;99.958;2022-08-21T05:44:08;6.95;;;3.38;;
74229;SDS011;62589;12.568;99.958;2022-08-21T05:46:35;6.45;;;2.65;;
74229;SDS011;62589;12.568;99.958;2022-08-21T05:49:01;6.93;;;2.75;;
74229;SDS011;62589;12.568;99.958;2022-08-21T05:51:28;6.78;;;2.78;;
74229;SDS011;62589;12.568;99.958;2022-08-21T05:53:55;8.40;;;2.80;;
74229;SDS011;62589;12.568;99.958;2022-08-21T05:56:21;5.93;;;2.72;;
74229;SDS011;62589;12.568;99.958;2022-08-21T05:58:47;5.45;;;2.40;;
74229;SDS011;62589;12.568;99.958;2022-08-21T06:01:14;9.75;;;2.63;;
74229;SDS011;62589;12.568;99.958;2022-08-21T06:03:41;5.53;;;2.60;;
74229;SDS011;62589;12.568;99.958;2022-08-21T06:06:08;6.43;;;3.00;;
74229;SDS011;62589;12.568;99.958;2022-08-21T06:08:35;5.43;;;2.78;;
74229;SDS011;62589;12.568;99.958;2022-08-21T06:11:02;6.68;;;2.90;;
74229;SDS011;62589;12.568;99.958;2022-08-21T06:13:30;5.57;;;2.15;;
74229;SDS011;62589;12.568;99.958;2022-08-21T06:16:07;7.13;;;3.20;;
74229;SDS011;62589;12.568;99.958;2022-08-21T06:18:36;4.80;;;2.92;;
74229;SDS011;62589;12.568;99.958;2022-08-21T06:21:04;6.45;;;2.60;;
74229;SDS011;62589;12.568;99.958;2022-08-21T06:23:32;5.40;;;2.70;;
74229;SDS011;62589;12.568;99.958;2022-08-21T06:26:00;9.55;;;2.80;;
74229;SDS011;62589;12.568;99.958;2022-08-21T06:28:27;6.97;;;2.53;;
74229;SDS011;62589;12.568;99.958;2022-08-21T06:30:54;7.78;;;3.03;;
74229;SDS011;62589;12.568;99.958;2022-08-21T06:33:21;8.55;;;3.22;;
74229;SDS011;62589;12.568;99.958;2022-08-21T06:35:47;5.25;;;2.80;;
74229;SDS011;62589;12.568;99.958;2022-08-21T06:38:14;3.88;;;2.42;;
74229;SDS011;62589;12.568;99.958;2022-08-21T06:40:41;4.65;;;2.35;;
74229;SDS011;62589;12.568;99.958;2022-08-21T06:43:10;6.32;;;2.42;;
74229;SDS011;62589;12.568;99.958;2022-08-21T06:45:40;4.00;;;1.65;;
74229;SDS011;62589;12.568;99.958;2022-08-21T06:48:07;4.10;;;2.00;;
74229;SDS011;62589;12.568;99.958;2022-08-21T06:50:34;4.50;;;1.75;;
74229;SDS011;62589;12.568;99.958;2022-08-21T06:53:08;3.00;;;1.52;;
74229;SDS011;62589;12.568;99.958;2022-08-21T06:55:37;4.32;;;2.13;;
74229;SDS011;62589;12.568;99.958;2022-08-21T06:58:05;6.57;;;2.30;;
74229;SDS011;62589;12.568;99.958;2022-08-21T07:00:33;4.03;;;1.83;;
74229;SDS011;62589;12.568;99.958;2022-08-21T07:03:01;3.70;;;2.10;;
74229;SDS011;62589;12.568;99.958;2022-08-21T07:05:28;4.03;;;2.20;;
74229;SDS011;62589;12.568;99.958;2022-08-21T07:07:57;4.20;;;2.03;;
74229;SDS011;62589;12.568;99.958;2022-08-21T07:10:25;3.42;;;1.30;;
74229;SDS011;62589;12.568;99.958;2022-08-21T07:12:52;3.00;;;1.70;;
74229;SDS011;62589;12.568;99.958;2022-08-21T07:15:20;8.93;;;2.60;;
74229;SDS011;62589;12.568;99.958;2022-08-21T07:17:47;6.82;;;2.97;;
74229;SDS011;62589;12.568;99.958;2022-08-21T07:20:13;7.68;;;3.15;;
74229;SDS011;62589;12.568;99.958;2022-08-21T07:22:40;6.20;;;2.65;;
74229;SDS011;62589;12.568;99.958;2022-08-21T07:25:07;4.10;;;2.20;;
74229;SDS011;62589;12.568;99.958;2022-08-21T07:27:34;4.78;;;2.47;;
74229;SDS011;62589;12.568;99.958;2022-08-21T07:30:00;6.38;;;2.40;;
74229;SDS011;62589;12.568;99.958;2022-08-21T07:32:27;4.38;;;2.17;;
74229;SDS011;62589;12.568;99.958;2022-08-21T07:34:53;4.22;;;2.17;;
74229;SDS011;62589;12.568;99.958;2022-08-21T07:37:20;2.70;;;1.75;;
74229;SDS011;62589;12.568;99.958;2022-08-21T07:39:46;4.57;;;1.45;;
74229;SDS011;62589;12.568;99.958;2022-08-21T07:42:14;5.22;;;1.80;;
74229;SDS011;62589;12.568;99.958;2022-08-21T07:44:41;3.92;;;1.60;;
74229;SDS011;62589;12.568;99.958;2022-08-21T07:47:08;3.40;;;1.75;;
74229;SDS011;62589;12.568;99.958;2022-08-21T07:49:34;4.32;;;1.52;;
74229;SDS011;62589;12.568;99.958;2022-08-21T07:52:03;4.20;;;1.80;;
74229;SDS011;62589;12.568;99.958;2022-08-21T07:54:29;4.55;;;2.05;;
74229;SDS011;62589;12.568;99.958;2022-08-21T07:56:55;2.72;;;1.63;;
74229;SDS011;62589;12.568;99.958;2022-08-21T07:59:22;2.70;;;1.70;;
74229;SDS011;62589;12.568;99.958;2022-08-21T08:01:49;4.53;;;2.10;;
74229;SDS011;62589;12.568;99.958;2022-08-21T08:04:16;4.78;;;1.98;;
74229;SDS011;62589;12.568;99.958;2022-08-21T08:06:43;3.30;;;1.63;;
74229;SDS011;62589;12.568;99.958;2022-08-21T08:09:09;4.88;;;2.20;;
74229;SDS011;62589;12.568;99.958;2022-08-21T08:11:36;3.42;;;1.88;;
74229;SDS011;62589;12.568;99.958;2022-08-21T08:14:06;3.92;;;1.83;;
74229;SDS011;62589;12.568;99.958;2022-08-21T08:16:33;6.95;;;2.20;;
74229;SDS011;62589;12.568;99.958;2022-08-21T08:18:59;2.92;;;1.80;;
74229;SDS011;62589;12.568;99.958;2022-08-21T08:21:26;5.57;;;2.50;;
74229;SDS011;62589;12.568;99.958;2022-08-21T08:23:53;8.48;;;2.88;;
74229;SDS011;62589;12.568;99.958;2022-08-21T08:26:19;6.00;;;2.20;;
74229;SDS011;62589;12.568;99.958;2022-08-21T08:28:46;6.75;;;2.25;;
74229;SDS011;62589;12.568;99.958;2022-08-21T08:31:13;4.57;;;1.70;;
74229;SDS011;62589;12.568;99.958;2022-08-21T08:33:41;5.00;;;1.80;;
74229;SDS011;62589;12.568;99.958;2022-08-21T08:36:15;3.42;;;1.85;;
74229;SDS011;62589;12.568;99.958;2022-08-21T08:38:43;5.03;;;2.40;;
74229;SDS011;62589;12.568;99.958;2022-08-21T08:41:17;2.75;;;1.45;;
74229;SDS011;62589;12.568;99.958;2022-08-21T08:43:55;5.32;;;2.20;;
74229;SDS011;62589;12.568;99.958;2022-08-21T08:46:40;4.85;;;1.98;;
74229;SDS011;62589;12.568;99.958;2022-08-21T08:49:13;5.75;;;1.52;;
74229;SDS011;62589;12.568;99.958;2022-08-21T08:52:02;6.13;;;2.10;;
74229;SDS011;62589;12.568;99.958;2022-08-21T08:54:51;6.38;;;1.80;;
74229;SDS011;62589;12.568;99.958;2022-08-21T08:57:26;7.72;;;1.63;;
74229;SDS011;62589;12.568;99.958;2022-08-21T08:59:54;5.93;;;2.00;;
74229;SDS011;62589;12.568;99.958;2022-08-21T09:02:24;5.55;;;1.55;;
74229;SDS011;62589;12.568;99.958;2022-08-21T09:04:52;2.42;;;1.40;;
74229;SDS011;62589;12.568;99.958;2022-08-21T09:07:31;2.90;;;1.73;;
74229;SDS011;62589;12.568;99.958;2022-08-21T09:10:13;5.55;;;1.70;;
74229;SDS011;62589;12.568;99.958;2022-08-21T09:12:51;2.45;;;1.52;;
74229;SDS011;62589;12.568;99.958;2022-08-21T09:15:32;5.20;;;1.60;;
74229;SDS011;62589;12.568;99.958;2022-08-21T09:21:18;7.18;;;2.15;;
74229;SDS011;62589;12.568;99.958;2022-08-21T09:27:10;6.07;;;2.25;;
74229;SDS011;62589;12.568;99.958;2022-08-21T09:29:43;5.05;;;2.10;;
74229;SDS011;62589;12.568;99.958;2022-08-21T09:37:58;4.15;;;1.50;;
74229;SDS011;62589;12.568;99.958;2022-08-21T09:40:40;4.90;;;1.67;;
74229;SDS011;62589;12.568;99.958;2022-08-21T09:46:12;3.88;;;1.67;;
74229;SDS011;62589;12.568;99.958;2022-08-21T09:48:48;3.95;;;1.80;;
74229;SDS011;62589;12.568;99.958;2022-08-21T09:51:20;3.13;;;1.45;;
74229;SDS011;62589;12.568;99.958;2022-08-21T09:53:52;3.45;;;1.60;;
74229;SDS011;62589;12.568;99.958;2022-08-21T09:56:50;2.95;;;1.20;;
74229;SDS011;62589;12.568;99.958;2022-08-21T09:59:33;1.70;;;1.35;;
74229;SDS011;62589;12.568;99.958;2022-08-21T10:02:02;4.25;;;1.50;;
74229;SDS011;62589;12.568;99.958;2022-08-21T10:04:57;4.63;;;1.80;;
74229;SDS011;62589;12.568;99.958;2022-08-21T10:07:29;4.13;;;1.50;;
74229;SDS011;62589;12.568;99.958;2022-08-21T10:10:00;4.47;;;1.65;;
74229;SDS011;62589;12.568;99.958;2022-08-21T10:12:33;2.85;;;1.70;;
74229;SDS011;62589;12.568;99.958;2022-08-21T10:15:23;5.35;;;1.85;;
74229;SDS011;62589;12.568;99.958;2022-08-21T10:18:04;6.45;;;1.85;;
74229;SDS011;62589;12.568;99.958;2022-08-21T10:32:12;3.75;;;1.73;;
74229;SDS011;62589;12.568;99.958;2022-08-21T10:35:06;9.63;;;2.63;;
74229;SDS011;62589;12.568;99.958;2022-08-21T10:37:48;4.00;;;2.10;;
74229;SDS011;62589;12.568;99.958;2022-08-21T10:40:40;7.93;;;2.30;;
74229;SDS011;62589;12.568;99.958;2022-08-21T10:43:30;8.85;;;2.60;;
74229;SDS011;62589;12.568;99.958;2022-08-21T10:46:14;7.28;;;2.83;;
74229;SDS011;62589;12.568;99.958;2022-08-21T10:49:02;9.02;;;2.78;;
74229;SDS011;62589;12.568;99.958;2022-08-21T10:51:51;5.72;;;2.00;;
74229;SDS011;62589;12.568;99.958;2022-08-21T10:57:22;5.13;;;2.17;;
74229;SDS011;62589;12.568;99.958;2022-08-21T11:00:20;7.90;;;2.08;;
74229;SDS011;62589;12.568;99.958;2022-08-21T11:02:50;5.28;;;2.30;;
74229;SDS011;62589;12.568;99.958;2022-08-21T11:05:42;5.25;;;2.00;;
74229;SDS011;62589;12.568;99.958;2022-08-21T11:08:17;3.25;;;2.15;;
74229;SDS011;62589;12.568;99.958;2022-08-21T11:11:10;8.93;;;2.83;;
74229;SDS011;62589;12.568;99.958;2022-08-21T11:13:49;9.18;;;2.78;;
74229;SDS011;62589;12.568;99.958;2022-08-21T11:16:26;8.70;;;2.97;;
74229;SDS011;62589;12.568;99.958;2022-08-21T11:19:13;7.35;;;3.20;;
74229;SDS011;62589;12.568;99.958;2022-08-21T11:21:51;5.78;;;2.47;;
74229;SDS011;62589;12.568;99.958;2022-08-21T11:24:29;5.78;;;3.22;;
74229;SDS011;62589;12.568;99.958;2022-08-21T11:30:02;8.13;;;2.63;;
74229;SDS011;62589;12.568;99.958;2022-08-21T11:38:22;7.32;;;3.28;;
74229;SDS011;62589;12.568;99.958;2022-08-21T11:47:09;5.35;;;2.40;;
74229;SDS011;62589;12.568;99.958;2022-08-21T11:50:02;3.83;;;2.63;;
74229;SDS011;62589;12.568;99.958;2022-08-21T11:52:50;7.15;;;2.67;;
74229;SDS011;62589;12.568;99.958;2022-08-21T11:58:42;4.57;;;2.42;;
74229;SDS011;62589;12.568;99.958;2022-08-21T12:01:15;7.35;;;2.88;;
74229;SDS011;62589;12.568;99.958;2022-08-21T12:03:57;5.65;;;2.22;;
74229;SDS011;62589;12.568;99.958;2022-08-21T12:06:36;6.07;;;2.55;;
74229;SDS011;62589;12.568;99.958;2022-08-21T12:09:08;6.32;;;2.78;;
74229;SDS011;62589;12.568;99.958;2022-08-21T12:11:51;6.72;;;2.90;;
74229;SDS011;62589;12.568;99.958;2022-08-21T12:14:44;7.97;;;3.22;;
74229;SDS011;62589;12.568;99.958;2022-08-21T12:17:20;6.40;;;2.50;;
74229;SDS011;62589;12.568;99.958;2022-08-21T12:19:58;3.90;;;2.45;;
74229;SDS011;62589;12.568;99.958;2022-08-21T12:25:07;8.82;;;1.85;;
74229;SDS011;62589;12.568;99.958;2022-08-21T12:27:45;2.78;;;1.25;;
74229;SDS011;62589;12.568;99.958;2022-08-21T12:30:22;2.10;;;1.02;;
74229;SDS011;62589;12.568;99.958;2022-08-21T12:41:30;1.23;;;0.63;;
74229;SDS011;62589;12.568;99.958;2022-08-21T12:44:08;1.05;;;0.50;;
74229;SDS011;62589;12.568;99.958;2022-08-21T12:46:45;2.30;;;0.57;;
74229;SDS011;62589;12.568;99.958;2022-08-21T12:49:37;3.38;;;0.68;;
74229;SDS011;62589;12.568;99.958;2022-08-21T12:52:20;3.10;;;0.63;;
74229;SDS011;62589;12.568;99.958;2022-08-21T12:54:55;3.17;;;0.28;;
74229;SDS011;62589;12.568;99.958;2022-08-21T12:57:25;1.17;;;0.43;;
74229;SDS011;62589;12.568;99.958;2022-08-21T12:59:55;2.13;;;0.70;;
74229;SDS011;62589;12.568;99.958;2022-08-21T13:02:25;3.90;;;0.38;;
74229;SDS011;62589;12.568;99.958;2022-08-21T13:04:55;1.38;;;0.45;;
74229;SDS011;62589;12.568;99.958;2022-08-21T13:07:29;3.45;;;0.40;;
74229;SDS011;62589;12.568;99.958;2022-08-21T13:10:02;1.30;;;0.28;;
74229;SDS011;62589;12.568;99.958;2022-08-21T13:12:32;1.85;;;0.40;;
74229;SDS011;62589;12.568;99.958;2022-08-21T13:15:03;0.75;;;0.28;;
74229;SDS011;62589;12.568;99.958;2022-08-21T13:17:36;3.13;;;0.30;;
74229;SDS011;62589;12.568;99.958;2022-08-21T13:20:08;0.95;;;0.30;;
74229;SDS011;62589;12.568;99.958;2022-08-21T13:22:45;2.42;;;0.22;;
74229;SDS011;62589;12.568;99.958;2022-08-21T13:25:12;0.85;;;0.40;;
74229;SDS011;62589;12.568;99.958;2022-08-21T13:27:41;1.25;;;0.47;;
74229;SDS011;62589;12.568;99.958;2022-08-21T13:30:17;1.35;;;0.38;;
74229;SDS011;62589;12.568;99.958;2022-08-21T13:32:48;1.55;;;0.28;;
74229;SDS011;62589;12.568;99.958;2022-08-21T13:35:21;0.70;;;0.30;;
74229;SDS011;62589;12.568;99.958;2022-08-21T13:37:57;1.23;;;0.25;;
74229;SDS011;62589;12.568;99.958;2022-08-21T13:40:29;2.97;;;0.40;;
74229;SDS011;62589;12.568;99.958;2022-08-21T13:43:09;1.30;;;0.30;;
74229;SDS011;62589;12.568;99.958;2022-08-21T13:45:42;3.00;;;0.32;;
74229;SDS011;62589;12.568;99.958;2022-08-21T13:50:39;1.33;;;0.30;;
74229;SDS011;62589;12.568;99.958;2022-08-21T13:53:19;2.30;;;0.47;;
74229;SDS011;62589;12.568;99.958;2022-08-21T13:55:54;1.08;;;0.30;;
74229;SDS011;62589;12.568;99.958;2022-08-21T13:58:30;0.95;;;0.40;;
74229;SDS011;62589;12.568;99.958;2022-08-21T14:00:59;1.48;;;0.30;;
74229;SDS011;62589;12.568;99.958;2022-08-21T14:03:35;2.88;;;0.63;;
74229;SDS011;62589;12.568;99.958;2022-08-21T14:06:12;0.73;;;0.40;;
74229;SDS011;62589;12.568;99.958;2022-08-21T14:08:54;2.05;;;0.55;;
74229;SDS011;62589;12.568;99.958;2022-08-21T14:11:27;2.30;;;0.47;;
74229;SDS011;62589;12.568;99.958;2022-08-21T14:14:00;1.00;;;0.30;;
74229;SDS011;62589;12.568;99.958;2022-08-21T14:16:46;2.35;;;0.38;;
74229;SDS011;62589;12.568;99.958;2022-08-21T14:19:22;2.00;;;0.60;;
74229;SDS011;62589;12.568;99.958;2022-08-21T14:24:48;2.78;;;0.60;;
74229;SDS011;62589;12.568;99.958;2022-08-21T14:27:27;1.95;;;0.50;;
74229;SDS011;62589;12.568;99.958;2022-08-21T14:30:01;1.70;;;0.55;;
74229;SDS011;62589;12.568;99.958;2022-08-21T14:32:37;3.08;;;0.93;;
74229;SDS011;62589;12.568;99.958;2022-08-21T14:35:08;2.55;;;0.50;;
74229;SDS011;62589;12.568;99.958;2022-08-21T14:37:34;2.90;;;0.90;;
74229;SDS011;62589;12.568;99.958;2022-08-21T14:40:02;1.42;;;0.65;;
74229;SDS011;62589;12.568;99.958;2022-08-21T14:42:30;1.63;;;0.70;;
74229;SDS011;62589;12.568;99.958;2022-08-21T14:44:57;1.92;;;0.70;;
74229;SDS011;62589;12.568;99.958;2022-08-21T14:47:27;2.30;;;0.65;;
74229;SDS011;62589;12.568;99.958;2022-08-21T14:49:55;0.93;;;0.60;;
74229;SDS011;62589;12.568;99.958;2022-08-21T14:52:22;3.17;;;0.85;;
74229;SDS011;62589;12.568;99.958;2022-08-21T14:54:51;1.85;;;0.77;;
74229;SDS011;62589;12.568;99.958;2022-08-21T14:57:19;2.05;;;0.60;;
74229;SDS011;62589;12.568;99.958;2022-08-21T14:59:45;1.75;;;0.93;;
74229;SDS011;62589;12.568;99.958;2022-08-21T15:02:12;5.35;;;1.15;;
74229;SDS011;62589;12.568;99.958;2022-08-21T15:04:39;1.52;;;0.85;;
74229;SDS011;62589;12.568;99.958;2022-08-21T15:07:07;6.95;;;0.90;;
74229;SDS011;62589;12.568;99.958;2022-08-21T15:09:33;2.42;;;0.77;;
74229;SDS011;62589;12.568;99.958;2022-08-21T15:12:00;4.75;;;1.10;;
74229;SDS011;62589;12.568;99.958;2022-08-21T15:14:29;3.00;;;0.90;;
74229;SDS011;62589;12.568;99.958;2022-08-21T15:16:57;1.52;;;0.73;;
74229;SDS011;62589;12.568;99.958;2022-08-21T15:19:26;2.67;;;0.90;;
74229;SDS011;62589;12.568;99.958;2022-08-21T15:21:54;3.92;;;1.33;;
74229;SDS011;62589;12.568;99.958;2022-08-21T15:24:21;3.72;;;1.52;;
74229;SDS011;62589;12.568;99.958;2022-08-21T15:26:48;2.72;;;1.30;;
74229;SDS011;62589;12.568;99.958;2022-08-21T15:29:15;4.25;;;1.38;;
74229;SDS011;62589;12.568;99.958;2022-08-21T15:31:54;2.60;;;1.30;;
74229;SDS011;62589;12.568;99.958;2022-08-21T15:34:23;3.85;;;1.55;;
74229;SDS011;62589;12.568;99.958;2022-08-21T15:36:52;2.63;;;1.27;;
74229;SDS011;62589;12.568;99.958;2022-08-21T15:39:20;5.88;;;1.35;;
74229;SDS011;62589;12.568;99.958;2022-08-21T15:41:46;4.18;;;1.63;;
74229;SDS011;62589;12.568;99.958;2022-08-21T15:44:14;3.15;;;1.30;;
74229;SDS011;62589;12.568;99.958;2022-08-21T15:46:41;2.75;;;1.70;;
74229;SDS011;62589;12.568;99.958;2022-08-21T15:49:10;2.80;;;1.25;;
74229;SDS011;62589;12.568;99.958;2022-08-21T15:51:39;2.85;;;0.98;;
74229;SDS011;62589;12.568;99.958;2022-08-21T15:54:06;3.67;;;1.10;;
74229;SDS011;62589;12.568;99.958;2022-08-21T15:56:33;2.88;;;1.25;;
74229;SDS011;62589;12.568;99.958;2022-08-21T16:01:38;2.03;;;0.95;;